Current Conditions
Gedeeltelijk bewolkt



Rainfall
0.00 (mm) - 0.00 (in)
Pressure
999.92 (hPa) - 29.53 (inHG)
Visibility

10.0 (km) - 6.2 (miles)
   Temperature
4  °C
39°F
2  °C
Dewpoint
87  %
 Humidity
   Wind Speed
24  km/h
13  kts
15  mph
6.7  m/s
   Wind Direction
 190°
Due South
   Airport Data
EBBR
Location Brussels 6 km (3.73 mi)
Metar :EBBR 120750Z 19013KT 9999 FEW012 FEW025CB 04/02 Q1000 TEMPO 22017G27KT 4500 SHRA
Tue 12th November 08:50 am
   Raw Metar Info
Raw METAR is the most common format in the world for the transmission of observational weather data. It is highly standardized through the International Civil Aviation Organization (ICAO), which allows it to be understood throughout most of the world.
   API Info
Data Provided by
https://www.checkwx.com/weather/EBBR
   © Info
CSS/SVG/PHP scripts were developed by weather34.com for use in the weather34 template © 2015-2019

Guide Info provided by Metar-Wikipedia